Station History

Weather Underground - logo

Station Historical Data
 
Daily Summary for November 18, 2018 Units:  English    Metric   Both
« Previous Day
Next Day »
Daily Weekly Monthly Yearly Custom
  Current: High: Low: Average:
Temperature: 50.6 °F 50.6 °F 35.4 °F 39.3 °F
Dew Point: 35.0 °F 37.3 °F 31.9 °F 34.5 °F
Humidity: 55 % 89 % 55 % 83 %
Wind Speed: 1.2 mph 1.2 mph 0.0 mph 0.1 mph
Wind Gust: 0.0 mph 0.1 mph - -
Wind:North - - ESE
Pressure: 30.14 in 30.15 in 30.06 in -
Precipitation: 0.00 in      
Historical Graphs
 
 
Tabular Data for November 18, 2018
Time Temperature Dew Point Pressure Wind Wind Speed Wind Gust Humidity Rainfall Rate (Hourly)
00:04 42.4 °F 37.0 °F 30.06 in Calm     81 % 0.00 in
00:09 42.4 °F 37.3 °F 30.06 in Calm     82 % 0.00 in
00:14 42.4 °F 37.0 °F 30.06 in Calm     81 % 0.00 in
00:19 42.3 °F 36.3 °F 30.06 in Calm     79 % 0.00 in
00:24 42.1 °F 36.1 °F 30.06 in Calm     79 % 0.00 in
00:29 41.2 °F 35.2 °F 30.06 in Calm     79 % 0.00 in
00:34 40.6 °F 35.2 °F 30.06 in Calm     81 % 0.00 in
00:39 40.3 °F 35.2 °F 30.06 in Calm     82 % 0.00 in
00:44 40.1 °F 35.4 °F 30.06 in Calm     83 % 0.00 in
00:49 39.6 °F 35.2 °F 30.06 in Calm     84 % 0.00 in
00:54 39.5 °F 35.1 °F 30.06 in Calm     84 % 0.00 in
00:59 39.3 °F 35.2 °F 30.06 in Calm     85 % 0.00 in
01:04 39.4 °F 35.3 °F 30.06 in Calm     85 % 0.00 in
01:09 39.5 °F 35.7 °F 30.06 in Calm     86 % 0.00 in
01:14 39.7 °F 35.9 °F 30.06 in Calm     86 % 0.00 in
01:19 39.7 °F 35.6 °F 30.06 in Calm     85 % 0.00 in
01:24 39.6 °F 35.8 °F 30.06 in Calm     86 % 0.00 in
01:29 39.5 °F 35.7 °F 30.07 in Calm     86 % 0.00 in
01:34 39.6 °F 35.8 °F 30.07 in Calm     86 % 0.00 in
01:39 39.7 °F 35.9 °F 30.07 in Calm     86 % 0.00 in
01:44 39.7 °F 35.9 °F 30.07 in Calm     86 % 0.00 in
01:49 39.4 °F 35.3 °F 30.07 in Calm     85 % 0.00 in
01:54 39.1 °F 35.0 °F 30.07 in Calm     85 % 0.00 in
01:59 39.2 °F 35.9 °F 30.07 in Calm     88 % 0.00 in
02:04 39.2 °F 35.7 °F 30.07 in Calm     87 % 0.00 in
02:09 39.1 °F 35.8 °F 30.07 in Calm     88 % 0.00 in
02:14 38.9 °F 35.4 °F 30.07 in Calm     87 % 0.00 in
02:19 38.7 °F 35.2 °F 30.07 in Calm     87 % 0.00 in
02:24 38.8 °F 35.6 °F 30.07 in Calm     88 % 0.00 in
02:29 38.8 °F 35.8 °F 30.07 in Calm     89 % 0.00 in
02:34 38.6 °F 35.4 °F 30.07 in Calm     88 % 0.00 in
02:39 38.4 °F 35.2 °F 30.07 in Calm     88 % 0.00 in
02:44 38.8 °F 35.8 °F 30.07 in Calm     89 % 0.00 in
02:49 39.3 °F 36.0 °F 30.07 in Calm     88 % 0.00 in
02:54 39.7 °F 36.1 °F 30.08 in Calm     87 % 0.00 in
02:59 39.9 °F 35.8 °F 30.08 in Calm     85 % 0.00 in
03:04 39.3 °F 34.9 °F 30.08 in Calm     84 % 0.00 in
03:09 38.9 °F 34.8 °F 30.07 in Calm     85 % 0.00 in
03:14 38.8 °F 35.3 °F 30.07 in Calm     87 % 0.00 in
03:19 38.6 °F 35.1 °F 30.07 in Calm     87 % 0.00 in
03:24 38.5 °F 35.3 °F 30.07 in Calm     88 % 0.00 in
03:29 38.5 °F 35.3 °F 30.07 in Calm     88 % 0.00 in
03:34 38.5 °F 35.3 °F 30.07 in Calm     88 % 0.00 in
03:39 38.9 °F 35.9 °F 30.07 in Calm     89 % 0.00 in
03:44 39.3 °F 36.0 °F 30.07 in Calm     88 % 0.00 in
03:49 39.5 °F 36.2 °F 30.07 in Calm     88 % 0.00 in
03:54 39.7 °F 35.9 °F 30.07 in Calm     86 % 0.00 in
03:59 39.9 °F 35.8 °F 30.07 in Calm     85 % 0.00 in
04:04 39.5 °F 35.1 °F 30.08 in Calm     84 % 0.00 in
04:09 39.0 °F 34.9 °F 30.08 in Calm     85 % 0.00 in
04:14 38.6 °F 34.8 °F 30.08 in Calm     86 % 0.00 in
04:19 38.2 °F 34.4 °F 30.08 in Calm     86 % 0.00 in
04:24 37.6 °F 33.8 °F 30.08 in Calm     86 % 0.00 in
04:29 37.1 °F 33.3 °F 30.08 in Calm     86 % 0.00 in
04:34 36.7 °F 32.9 °F 30.08 in Calm     86 % 0.00 in
04:39 36.5 °F 33.0 °F 30.08 in Calm     87 % 0.00 in
04:44 36.8 °F 33.3 °F 30.08 in Calm     87 % 0.00 in
04:49 37.0 °F 33.5 °F 30.08 in Calm     87 % 0.00 in
04:54 37.0 °F 33.2 °F 30.08 in Calm     86 % 0.00 in
04:59 36.9 °F 32.8 °F 30.09 in Calm     85 % 0.00 in
05:04 36.8 °F 32.7 °F 30.08 in Calm     85 % 0.00 in
05:09 36.7 °F 32.6 °F 30.09 in Calm     85 % 0.00 in
05:14 36.6 °F 32.8 °F 30.09 in Calm     86 % 0.00 in
05:19 36.4 °F 32.6 °F 30.09 in Calm     86 % 0.00 in
05:24 36.1 °F 32.3 °F 30.09 in Calm     86 % 0.00 in
05:29 35.8 °F 32.0 °F 30.09 in Calm     86 % 0.00 in
05:34 35.6 °F 32.1 °F 30.09 in Calm     87 % 0.00 in
05:39 35.4 °F 31.9 °F 30.09 in Calm     87 % 0.00 in
05:44 35.6 °F 32.4 °F 30.09 in Calm     88 % 0.00 in
05:49 35.5 °F 32.3 °F 30.10 in Calm     88 % 0.00 in
05:54 35.5 °F 32.3 °F 30.10 in Calm     88 % 0.00 in
05:59 35.7 °F 32.8 °F 30.10 in Calm     89 % 0.00 in
06:04 35.7 °F 32.5 °F 30.10 in Calm     88 % 0.00 in
06:09 35.5 °F 32.3 °F 30.10 in Calm     88 % 0.00 in
06:14 35.5 °F 32.3 °F 30.10 in Calm     88 % 0.00 in
06:19 35.6 °F 32.4 °F 30.11 in Calm     88 % 0.00 in
06:24 35.6 °F 32.4 °F 30.11 in Calm     88 % 0.00 in
06:29 35.6 °F 32.4 °F 30.11 in Calm     88 % 0.00 in
06:34 35.5 °F 32.6 °F 30.11 in Calm     89 % 0.00 in
06:39 35.6 °F 32.7 °F 30.12 in Calm     89 % 0.00 in
06:44 35.7 °F 32.8 °F 30.12 in Calm     89 % 0.00 in
06:49 35.8 °F 32.9 °F 30.12 in Calm     89 % 0.00 in
06:54 35.8 °F 32.6 °F 30.12 in North 1.2 mph 0.1 mph 88 % 0.00 in
06:59 35.9 °F 33.0 °F 30.12 in Calm     89 % 0.00 in
07:04 35.9 °F 32.7 °F 30.12 in Calm     88 % 0.00 in
07:09 36.0 °F 32.5 °F 30.13 in Calm     87 % 0.00 in
07:14 36.5 °F 32.4 °F 30.13 in North 1.2 mph   85 % 0.00 in
07:19 37.2 °F 32.5 °F 30.13 in North 1.2 mph   83 % 0.00 in
07:24 37.6 °F 32.9 °F 30.13 in Calm     83 % 0.00 in
07:29 37.9 °F 33.2 °F 30.13 in Calm     83 % 0.00 in
07:34 38.4 °F 33.7 °F 30.14 in Calm     83 % 0.00 in
07:39 39.1 °F 34.1 °F 30.14 in Calm     82 % 0.00 in
07:44 40.1 °F 34.1 °F 30.14 in Calm     79 % 0.00 in
07:49 41.1 °F 34.4 °F 30.14 in Calm     77 % 0.00 in
07:54 42.1 °F 35.1 °F 30.14 in Calm     76 % 0.00 in
07:59 43.2 °F 35.5 °F 30.14 in Calm     74 % 0.00 in
08:04 44.3 °F 35.5 °F 30.14 in Calm     71 % 0.00 in
08:09 45.2 °F 35.6 °F 30.14 in Calm     69 % 0.00 in
08:14 45.8 °F 35.1 °F 30.14 in Calm     66 % 0.00 in
08:19 46.0 °F 34.9 °F 30.14 in Calm     65 % 0.00 in
08:24 46.5 °F 35.4 °F 30.15 in Calm     65 % 0.00 in
08:29 47.1 °F 35.1 °F 30.15 in NNW 1.2 mph   63 % 0.00 in
08:34 47.8 °F 35.4 °F 30.14 in Calm     62 % 0.00 in
08:39 48.4 °F 35.1 °F 30.15 in Calm     60 % 0.00 in
08:44 49.1 °F 34.9 °F 30.15 in Calm     58 % 0.00 in
08:49 49.9 °F 36.1 °F 30.14 in Calm     59 % 0.00 in
08:54 50.3 °F 35.6 °F 30.14 in NW 1.2 mph   57 % 0.00 in
08:59 50.6 °F 35.0 °F 30.14 in North 1.2 mph   55 % 0.00 in
Park Place, Exeter, Tulare County, California, USA
Compliments of Weather Underground - 1.75 mb